sensor_id;sensor_type;location;lat;lon;timestamp;P1;durP1;ratioP1;P2;durP2;ratioP2
73938;SDS011;62291;47.554;8.504;2022-10-24T00:01:16;14.18;;;2.38;;
73938;SDS011;62291;47.554;8.504;2022-10-24T00:03:44;12.55;;;2.67;;
73938;SDS011;62291;47.554;8.504;2022-10-24T00:06:10;10.90;;;2.33;;
73938;SDS011;62291;47.554;8.504;2022-10-24T00:08:37;14.35;;;2.88;;
73938;SDS011;62291;47.554;8.504;2022-10-24T00:11:08;15.38;;;2.60;;
73938;SDS011;62291;47.554;8.504;2022-10-24T00:13:35;17.03;;;2.80;;
73938;SDS011;62291;47.554;8.504;2022-10-24T00:16:01;12.88;;;2.47;;
73938;SDS011;62291;47.554;8.504;2022-10-24T00:18:27;14.43;;;2.63;;
73938;SDS011;62291;47.554;8.504;2022-10-24T00:20:52;11.40;;;2.33;;
73938;SDS011;62291;47.554;8.504;2022-10-24T00:23:18;14.48;;;2.50;;
73938;SDS011;62291;47.554;8.504;2022-10-24T00:25:44;13.75;;;2.67;;
73938;SDS011;62291;47.554;8.504;2022-10-24T00:28:09;16.20;;;3.22;;
73938;SDS011;62291;47.554;8.504;2022-10-24T00:30:35;7.55;;;2.50;;
73938;SDS011;62291;47.554;8.504;2022-10-24T00:33:01;11.77;;;2.83;;
73938;SDS011;62291;47.554;8.504;2022-10-24T00:35:27;17.27;;;2.97;;
73938;SDS011;62291;47.554;8.504;2022-10-24T00:37:52;11.05;;;3.08;;
73938;SDS011;62291;47.554;8.504;2022-10-24T00:40:18;18.17;;;3.03;;
73938;SDS011;62291;47.554;8.504;2022-10-24T00:42:45;18.05;;;2.88;;
73938;SDS011;62291;47.554;8.504;2022-10-24T00:51:06;9.25;;;3.10;;
73938;SDS011;62291;47.554;8.504;2022-10-24T00:53:40;13.07;;;3.08;;
73938;SDS011;62291;47.554;8.504;2022-10-24T00:56:08;11.48;;;2.42;;
73938;SDS011;62291;47.554;8.504;2022-10-24T00:58:37;13.15;;;3.17;;
73938;SDS011;62291;47.554;8.504;2022-10-24T01:01:05;7.20;;;2.50;;
73938;SDS011;62291;47.554;8.504;2022-10-24T01:03:33;14.07;;;3.55;;
73938;SDS011;62291;47.554;8.504;2022-10-24T01:16:27;14.70;;;2.92;;
73938;SDS011;62291;47.554;8.504;2022-10-24T01:19:06;13.20;;;3.30;;
73938;SDS011;62291;47.554;8.504;2022-10-24T01:22:07;12.05;;;2.60;;
73938;SDS011;62291;47.554;8.504;2022-10-24T01:27:43;15.27;;;3.65;;
73938;SDS011;62291;47.554;8.504;2022-10-24T01:30:36;13.10;;;3.70;;
73938;SDS011;62291;47.554;8.504;2022-10-24T01:33:21;14.70;;;3.25;;
73938;SDS011;62291;47.554;8.504;2022-10-24T01:38:58;13.70;;;3.85;;
73938;SDS011;62291;47.554;8.504;2022-10-24T01:41:25;10.60;;;3.00;;
73938;SDS011;62291;47.554;8.504;2022-10-24T01:43:56;14.70;;;3.40;;
73938;SDS011;62291;47.554;8.504;2022-10-24T01:46:28;15.00;;;3.25;;
73938;SDS011;62291;47.554;8.504;2022-10-24T01:48:57;15.32;;;3.72;;
73938;SDS011;62291;47.554;8.504;2022-10-24T01:51:28;11.65;;;2.83;;
73938;SDS011;62291;47.554;8.504;2022-10-24T01:53:56;10.73;;;3.25;;
73938;SDS011;62291;47.554;8.504;2022-10-24T01:56:24;11.70;;;2.63;;
73938;SDS011;62291;47.554;8.504;2022-10-24T01:58:50;15.15;;;3.05;;
73938;SDS011;62291;47.554;8.504;2022-10-24T02:01:17;9.10;;;3.50;;
73938;SDS011;62291;47.554;8.504;2022-10-24T02:03:47;12.65;;;3.45;;
73938;SDS011;62291;47.554;8.504;2022-10-24T02:06:21;12.50;;;2.83;;
73938;SDS011;62291;47.554;8.504;2022-10-24T02:08:51;14.77;;;3.60;;
73938;SDS011;62291;47.554;8.504;2022-10-24T02:11:22;12.90;;;3.53;;
73938;SDS011;62291;47.554;8.504;2022-10-24T02:16:31;14.95;;;3.50;;
73938;SDS011;62291;47.554;8.504;2022-10-24T02:18:58;13.80;;;3.75;;
73938;SDS011;62291;47.554;8.504;2022-10-24T02:24:17;10.27;;;3.05;;
73938;SDS011;62291;47.554;8.504;2022-10-24T02:29:23;12.50;;;2.85;;
73938;SDS011;62291;47.554;8.504;2022-10-24T02:31:56;12.63;;;3.33;;
73938;SDS011;62291;47.554;8.504;2022-10-24T02:34:23;14.80;;;3.80;;
73938;SDS011;62291;47.554;8.504;2022-10-24T02:36:53;16.65;;;2.83;;
73938;SDS011;62291;47.554;8.504;2022-10-24T02:39:20;13.70;;;3.08;;
73938;SDS011;62291;47.554;8.504;2022-10-24T02:41:47;16.55;;;3.05;;
73938;SDS011;62291;47.554;8.504;2022-10-24T02:44:16;11.43;;;2.90;;
73938;SDS011;62291;47.554;8.504;2022-10-24T02:46:43;9.23;;;2.60;;
73938;SDS011;62291;47.554;8.504;2022-10-24T02:49:12;10.27;;;2.30;;
73938;SDS011;62291;47.554;8.504;2022-10-24T02:51:38;9.27;;;2.70;;
73938;SDS011;62291;47.554;8.504;2022-10-24T02:54:07;11.95;;;2.50;;
73938;SDS011;62291;47.554;8.504;2022-10-24T02:56:34;10.55;;;2.70;;
73938;SDS011;62291;47.554;8.504;2022-10-24T02:59:03;12.65;;;2.92;;
73938;SDS011;62291;47.554;8.504;2022-10-24T03:01:29;10.02;;;2.53;;
73938;SDS011;62291;47.554;8.504;2022-10-24T03:03:55;10.52;;;3.10;;
73938;SDS011;62291;47.554;8.504;2022-10-24T03:06:21;16.50;;;3.13;;
73938;SDS011;62291;47.554;8.504;2022-10-24T03:08:46;9.43;;;2.50;;
73938;SDS011;62291;47.554;8.504;2022-10-24T03:11:12;8.60;;;2.35;;
73938;SDS011;62291;47.554;8.504;2022-10-24T03:13:38;15.05;;;3.33;;
73938;SDS011;62291;47.554;8.504;2022-10-24T03:16:04;11.20;;;4.40;;
73938;SDS011;62291;47.554;8.504;2022-10-24T03:18:29;11.13;;;3.25;;
73938;SDS011;62291;47.554;8.504;2022-10-24T03:20:55;10.32;;;3.28;;
73938;SDS011;62291;47.554;8.504;2022-10-24T03:23:21;16.52;;;3.67;;
73938;SDS011;62291;47.554;8.504;2022-10-24T03:25:48;9.93;;;2.70;;
73938;SDS011;62291;47.554;8.504;2022-10-24T03:28:14;13.00;;;2.42;;
73938;SDS011;62291;47.554;8.504;2022-10-24T03:30:39;8.13;;;2.17;;
73938;SDS011;62291;47.554;8.504;2022-10-24T03:33:05;9.95;;;2.60;;
73938;SDS011;62291;47.554;8.504;2022-10-24T03:35:31;10.52;;;2.20;;
73938;SDS011;62291;47.554;8.504;2022-10-24T03:37:57;8.45;;;2.28;;
73938;SDS011;62291;47.554;8.504;2022-10-24T03:40:22;12.10;;;2.50;;
73938;SDS011;62291;47.554;8.504;2022-10-24T03:42:48;7.43;;;2.05;;
73938;SDS011;62291;47.554;8.504;2022-10-24T03:45:14;7.05;;;1.77;;
73938;SDS011;62291;47.554;8.504;2022-10-24T03:47:40;10.15;;;1.58;;
73938;SDS011;62291;47.554;8.504;2022-10-24T03:50:05;9.00;;;2.28;;
73938;SDS011;62291;47.554;8.504;2022-10-24T03:52:32;9.35;;;2.55;;
73938;SDS011;62291;47.554;8.504;2022-10-24T03:54:58;10.30;;;2.20;;
73938;SDS011;62291;47.554;8.504;2022-10-24T03:57:23;8.75;;;1.98;;
73938;SDS011;62291;47.554;8.504;2022-10-24T03:59:50;11.02;;;2.00;;
73938;SDS011;62291;47.554;8.504;2022-10-24T04:02:16;9.65;;;2.38;;
73938;SDS011;62291;47.554;8.504;2022-10-24T04:04:41;9.13;;;1.85;;
73938;SDS011;62291;47.554;8.504;2022-10-24T04:07:07;9.45;;;2.03;;
73938;SDS011;62291;47.554;8.504;2022-10-24T04:09:33;9.13;;;1.58;;
73938;SDS011;62291;47.554;8.504;2022-10-24T04:11:59;10.48;;;1.70;;
73938;SDS011;62291;47.554;8.504;2022-10-24T04:14:24;9.85;;;1.90;;
73938;SDS011;62291;47.554;8.504;2022-10-24T04:16:50;7.32;;;1.63;;
73938;SDS011;62291;47.554;8.504;2022-10-24T04:19:16;7.85;;;1.35;;
73938;SDS011;62291;47.554;8.504;2022-10-24T04:21:43;7.35;;;1.42;;
73938;SDS011;62291;47.554;8.504;2022-10-24T04:24:09;7.32;;;1.50;;
73938;SDS011;62291;47.554;8.504;2022-10-24T04:26:35;9.23;;;1.63;;
73938;SDS011;62291;47.554;8.504;2022-10-24T04:29:02;7.63;;;1.55;;
73938;SDS011;62291;47.554;8.504;2022-10-24T04:31:28;6.72;;;1.75;;
73938;SDS011;62291;47.554;8.504;2022-10-24T04:33:53;12.82;;;2.63;;
73938;SDS011;62291;47.554;8.504;2022-10-24T04:36:19;5.65;;;1.90;;
73938;SDS011;62291;47.554;8.504;2022-10-24T04:38:45;11.73;;;2.38;;
73938;SDS011;62291;47.554;8.504;2022-10-24T04:41:11;11.80;;;2.50;;
73938;SDS011;62291;47.554;8.504;2022-10-24T04:43:36;9.98;;;2.53;;
73938;SDS011;62291;47.554;8.504;2022-10-24T04:46:02;12.68;;;2.45;;
73938;SDS011;62291;47.554;8.504;2022-10-24T04:48:28;8.77;;;2.38;;
73938;SDS011;62291;47.554;8.504;2022-10-24T04:50:54;10.65;;;2.85;;
73938;SDS011;62291;47.554;8.504;2022-10-24T04:53:20;8.15;;;2.45;;
73938;SDS011;62291;47.554;8.504;2022-10-24T04:55:46;9.85;;;2.05;;
73938;SDS011;62291;47.554;8.504;2022-10-24T04:58:11;9.27;;;1.88;;
73938;SDS011;62291;47.554;8.504;2022-10-24T05:00:37;5.13;;;1.75;;
73938;SDS011;62291;47.554;8.504;2022-10-24T05:03:03;9.60;;;1.83;;
73938;SDS011;62291;47.554;8.504;2022-10-24T05:05:29;6.85;;;1.92;;
73938;SDS011;62291;47.554;8.504;2022-10-24T05:07:55;7.40;;;1.50;;
73938;SDS011;62291;47.554;8.504;2022-10-24T05:10:20;8.00;;;1.90;;
73938;SDS011;62291;47.554;8.504;2022-10-24T05:12:46;8.95;;;1.70;;
73938;SDS011;62291;47.554;8.504;2022-10-24T05:15:12;12.63;;;1.98;;
73938;SDS011;62291;47.554;8.504;2022-10-24T05:17:40;6.00;;;1.70;;
73938;SDS011;62291;47.554;8.504;2022-10-24T05:20:06;13.40;;;2.25;;
73938;SDS011;62291;47.554;8.504;2022-10-24T05:22:32;8.05;;;1.70;;
73938;SDS011;62291;47.554;8.504;2022-10-24T05:24:58;7.63;;;1.40;;
73938;SDS011;62291;47.554;8.504;2022-10-24T05:27:24;8.60;;;1.55;;
73938;SDS011;62291;47.554;8.504;2022-10-24T05:29:50;5.70;;;1.45;;
73938;SDS011;62291;47.554;8.504;2022-10-24T05:32:16;11.18;;;1.85;;
73938;SDS011;62291;47.554;8.504;2022-10-24T05:34:42;8.38;;;2.17;;
73938;SDS011;62291;47.554;8.504;2022-10-24T05:37:08;5.25;;;1.60;;
73938;SDS011;62291;47.554;8.504;2022-10-24T05:39:34;7.60;;;1.60;;
73938;SDS011;62291;47.554;8.504;2022-10-24T05:42:00;5.45;;;1.45;;
73938;SDS011;62291;47.554;8.504;2022-10-24T05:44:26;7.00;;;2.03;;
73938;SDS011;62291;47.554;8.504;2022-10-24T05:46:52;6.47;;;1.75;;
73938;SDS011;62291;47.554;8.504;2022-10-24T05:49:18;7.40;;;1.88;;
73938;SDS011;62291;47.554;8.504;2022-10-24T05:51:43;5.15;;;1.80;;
73938;SDS011;62291;47.554;8.504;2022-10-24T05:54:09;6.07;;;1.63;;
73938;SDS011;62291;47.554;8.504;2022-10-24T05:56:35;6.88;;;2.00;;
73938;SDS011;62291;47.554;8.504;2022-10-24T05:59:01;8.85;;;1.80;;
73938;SDS011;62291;47.554;8.504;2022-10-24T06:01:28;9.80;;;2.05;;
73938;SDS011;62291;47.554;8.504;2022-10-24T06:03:54;6.25;;;1.58;;
73938;SDS011;62291;47.554;8.504;2022-10-24T06:06:20;8.00;;;1.90;;
73938;SDS011;62291;47.554;8.504;2022-10-24T06:08:46;9.32;;;1.65;;
73938;SDS011;62291;47.554;8.504;2022-10-24T06:11:12;9.13;;;1.77;;
73938;SDS011;62291;47.554;8.504;2022-10-24T06:13:38;8.73;;;1.90;;
73938;SDS011;62291;47.554;8.504;2022-10-24T06:16:07;8.75;;;1.85;;
73938;SDS011;62291;47.554;8.504;2022-10-24T06:18:34;10.65;;;3.28;;
73938;SDS011;62291;47.554;8.504;2022-10-24T06:21:01;10.15;;;2.75;;
73938;SDS011;62291;47.554;8.504;2022-10-24T06:23:27;7.55;;;2.80;;
73938;SDS011;62291;47.554;8.504;2022-10-24T06:25:53;10.85;;;2.60;;
73938;SDS011;62291;47.554;8.504;2022-10-24T06:28:19;8.70;;;3.47;;
73938;SDS011;62291;47.554;8.504;2022-10-24T06:30:45;7.22;;;3.00;;
73938;SDS011;62291;47.554;8.504;2022-10-24T06:33:13;9.93;;;3.00;;
73938;SDS011;62291;47.554;8.504;2022-10-24T06:35:39;7.15;;;2.58;;
73938;SDS011;62291;47.554;8.504;2022-10-24T06:38:05;9.73;;;2.70;;
73938;SDS011;62291;47.554;8.504;2022-10-24T06:40:31;8.95;;;2.60;;
73938;SDS011;62291;47.554;8.504;2022-10-24T06:42:56;6.75;;;2.50;;
73938;SDS011;62291;47.554;8.504;2022-10-24T06:45:22;9.15;;;2.53;;
73938;SDS011;62291;47.554;8.504;2022-10-24T06:47:49;8.05;;;2.70;;
73938;SDS011;62291;47.554;8.504;2022-10-24T06:50:15;9.77;;;3.20;;
73938;SDS011;62291;47.554;8.504;2022-10-24T06:52:41;10.07;;;2.60;;
73938;SDS011;62291;47.554;8.504;2022-10-24T06:55:07;11.73;;;3.08;;
73938;SDS011;62291;47.554;8.504;2022-10-24T06:57:33;10.65;;;3.13;;
73938;SDS011;62291;47.554;8.504;2022-10-24T06:59:59;8.45;;;2.63;;
73938;SDS011;62291;47.554;8.504;2022-10-24T07:02:25;10.80;;;2.97;;
73938;SDS011;62291;47.554;8.504;2022-10-24T07:04:51;13.68;;;2.50;;
73938;SDS011;62291;47.554;8.504;2022-10-24T07:07:17;12.13;;;2.60;;
73938;SDS011;62291;47.554;8.504;2022-10-24T07:09:49;9.70;;;2.40;;
73938;SDS011;62291;47.554;8.504;2022-10-24T07:12:17;7.53;;;2.63;;
73938;SDS011;62291;47.554;8.504;2022-10-24T07:14:43;7.72;;;2.25;;
73938;SDS011;62291;47.554;8.504;2022-10-24T07:17:08;11.23;;;2.97;;
73938;SDS011;62291;47.554;8.504;2022-10-24T07:19:34;10.45;;;2.78;;
73938;SDS011;62291;47.554;8.504;2022-10-24T07:22:00;11.93;;;3.38;;
73938;SDS011;62291;47.554;8.504;2022-10-24T07:24:25;13.52;;;3.42;;
73938;SDS011;62291;47.554;8.504;2022-10-24T07:26:51;13.25;;;2.97;;
73938;SDS011;62291;47.554;8.504;2022-10-24T07:29:17;11.98;;;3.60;;
73938;SDS011;62291;47.554;8.504;2022-10-24T07:31:43;7.95;;;2.80;;
73938;SDS011;62291;47.554;8.504;2022-10-24T07:34:11;10.82;;;2.85;;
73938;SDS011;62291;47.554;8.504;2022-10-24T07:36:37;7.57;;;2.45;;
73938;SDS011;62291;47.554;8.504;2022-10-24T07:39:03;7.78;;;2.53;;
73938;SDS011;62291;47.554;8.504;2022-10-24T07:41:29;7.32;;;2.50;;
73938;SDS011;62291;47.554;8.504;2022-10-24T07:43:59;9.40;;;2.22;;
73938;SDS011;62291;47.554;8.504;2022-10-24T07:46:26;8.98;;;2.10;;
73938;SDS011;62291;47.554;8.504;2022-10-24T07:48:53;6.50;;;2.00;;
73938;SDS011;62291;47.554;8.504;2022-10-24T07:51:19;7.82;;;2.08;;
73938;SDS011;62291;47.554;8.504;2022-10-24T07:53:45;10.80;;;2.00;;
73938;SDS011;62291;47.554;8.504;2022-10-24T07:56:12;10.52;;;1.80;;
73938;SDS011;62291;47.554;8.504;2022-10-24T07:58:40;5.18;;;1.65;;
73938;SDS011;62291;47.554;8.504;2022-10-24T08:01:11;7.55;;;1.60;;
73938;SDS011;62291;47.554;8.504;2022-10-24T08:03:39;10.93;;;2.70;;
73938;SDS011;62291;47.554;8.504;2022-10-24T08:06:05;9.55;;;2.10;;
73938;SDS011;62291;47.554;8.504;2022-10-24T08:08:33;10.73;;;2.45;;
73938;SDS011;62291;47.554;8.504;2022-10-24T08:10:59;10.43;;;2.80;;
73938;SDS011;62291;47.554;8.504;2022-10-24T08:13:25;9.65;;;3.22;;
73938;SDS011;62291;47.554;8.504;2022-10-24T08:15:51;8.90;;;2.70;;
73938;SDS011;62291;47.554;8.504;2022-10-24T08:18:18;12.10;;;2.90;;
73938;SDS011;62291;47.554;8.504;2022-10-24T08:20:43;9.88;;;2.70;;
73938;SDS011;62291;47.554;8.504;2022-10-24T08:23:09;9.55;;;2.85;;
73938;SDS011;62291;47.554;8.504;2022-10-24T08:25:38;7.18;;;2.72;;
73938;SDS011;62291;47.554;8.504;2022-10-24T08:28:05;12.15;;;3.65;;
73938;SDS011;62291;47.554;8.504;2022-10-24T08:30:30;11.75;;;4.43;;
73938;SDS011;62291;47.554;8.504;2022-10-24T08:32:56;9.68;;;3.65;;
73938;SDS011;62291;47.554;8.504;2022-10-24T08:35:22;10.13;;;3.50;;
73938;SDS011;62291;47.554;8.504;2022-10-24T08:37:47;15.57;;;3.88;;
73938;SDS011;62291;47.554;8.504;2022-10-24T08:40:14;9.75;;;3.47;;
73938;SDS011;62291;47.554;8.504;2022-10-24T08:42:43;10.48;;;3.13;;
73938;SDS011;62291;47.554;8.504;2022-10-24T08:45:11;11.45;;;2.67;;
73938;SDS011;62291;47.554;8.504;2022-10-24T08:52:48;8.27;;;2.40;;
73938;SDS011;62291;47.554;8.504;2022-10-24T08:55:23;7.97;;;2.33;;
73938;SDS011;62291;47.554;8.504;2022-10-24T08:57:56;6.63;;;2.65;;
73938;SDS011;62291;47.554;8.504;2022-10-24T09:00:26;6.18;;;2.35;;
73938;SDS011;62291;47.554;8.504;2022-10-24T09:02:58;8.75;;;2.20;;
73938;SDS011;62291;47.554;8.504;2022-10-24T09:05:52;9.80;;;2.47;;
73938;SDS011;62291;47.554;8.504;2022-10-24T09:11:10;11.23;;;2.95;;
73938;SDS011;62291;47.554;8.504;2022-10-24T09:13:41;8.23;;;2.67;;
73938;SDS011;62291;47.554;8.504;2022-10-24T09:16:09;7.22;;;2.45;;
73938;SDS011;62291;47.554;8.504;2022-10-24T09:18:41;6.20;;;2.40;;
73938;SDS011;62291;47.554;8.504;2022-10-24T09:21:10;5.00;;;2.03;;
73938;SDS011;62291;47.554;8.504;2022-10-24T09:23:38;7.82;;;2.45;;
73938;SDS011;62291;47.554;8.504;2022-10-24T09:26:04;11.23;;;2.55;;
73938;SDS011;62291;47.554;8.504;2022-10-24T09:28:37;6.25;;;1.52;;
73938;SDS011;62291;47.554;8.504;2022-10-24T09:31:12;5.40;;;1.00;;
73938;SDS011;62291;47.554;8.504;2022-10-24T09:33:44;8.02;;;3.00;;
73938;SDS011;62291;47.554;8.504;2022-10-24T09:36:12;12.40;;;2.35;;
73938;SDS011;62291;47.554;8.504;2022-10-24T09:38:40;7.00;;;1.90;;
73938;SDS011;62291;47.554;8.504;2022-10-24T09:46:15;6.78;;;1.48;;
73938;SDS011;62291;47.554;8.504;2022-10-24T09:54:00;5.00;;;3.15;;
73938;SDS011;62291;47.554;8.504;2022-10-24T09:56:39;6.72;;;1.67;;
73938;SDS011;62291;47.554;8.504;2022-10-24T10:01:42;4.63;;;1.00;;
73938;SDS011;62291;47.554;8.504;2022-10-24T10:04:13;3.83;;;1.00;;
73938;SDS011;62291;47.554;8.504;2022-10-24T10:06:42;4.18;;;1.20;;
73938;SDS011;62291;47.554;8.504;2022-10-24T10:09:11;11.25;;;1.42;;
73938;SDS011;62291;47.554;8.504;2022-10-24T10:11:39;4.43;;;0.90;;
73938;SDS011;62291;47.554;8.504;2022-10-24T10:14:14;5.32;;;0.88;;
73938;SDS011;62291;47.554;8.504;2022-10-24T10:16:47;4.40;;;0.85;;
73938;SDS011;62291;47.554;8.504;2022-10-24T10:19:23;2.53;;;0.50;;
73938;SDS011;62291;47.554;8.504;2022-10-24T10:21:59;4.60;;;0.80;;
73938;SDS011;62291;47.554;8.504;2022-10-24T10:24:37;2.35;;;0.57;;
73938;SDS011;62291;47.554;8.504;2022-10-24T10:30:36;3.67;;;0.75;;
73938;SDS011;62291;47.554;8.504;2022-10-24T10:32:44;1.92;;;0.50;;
73938;SDS011;62291;47.554;8.504;2022-10-24T10:35:23;3.80;;;0.52;;
73938;SDS011;62291;47.554;8.504;2022-10-24T10:46:30;3.83;;;1.05;;
73938;SDS011;62291;47.554;8.504;2022-10-24T10:52:13;3.22;;;0.70;;
73938;SDS011;62291;47.554;8.504;2022-10-24T10:57:46;4.65;;;0.88;;
73938;SDS011;62291;47.554;8.504;2022-10-24T11:00:38;4.32;;;0.70;;
73938;SDS011;62291;47.554;8.504;2022-10-24T11:11:10;2.42;;;0.63;;
73938;SDS011;62291;47.554;8.504;2022-10-24T11:14:11;2.13;;;0.70;;
73938;SDS011;62291;47.554;8.504;2022-10-24T11:16:29;2.65;;;1.27;;
73938;SDS011;62291;47.554;8.504;2022-10-24T11:18:58;5.28;;;1.33;;
73938;SDS011;62291;47.554;8.504;2022-10-24T11:21:28;4.20;;;0.60;;
73938;SDS011;62291;47.554;8.504;2022-10-24T11:23:58;3.85;;;0.77;;
73938;SDS011;62291;47.554;8.504;2022-10-24T11:29:25;3.40;;;0.85;;
73938;SDS011;62291;47.554;8.504;2022-10-24T11:32:09;4.30;;;1.08;;
73938;SDS011;62291;47.554;8.504;2022-10-24T11:37:42;1.90;;;0.80;;
73938;SDS011;62291;47.554;8.504;2022-10-24T11:40:13;5.90;;;0.73;;
73938;SDS011;62291;47.554;8.504;2022-10-24T11:45:27;3.28;;;0.70;;
73938;SDS011;62291;47.554;8.504;2022-10-24T11:57:44;3.53;;;1.10;;
73938;SDS011;62291;47.554;8.504;2022-10-24T11:59:49;2.78;;;0.80;;
73938;SDS011;62291;47.554;8.504;2022-10-24T12:08:51;3.97;;;1.00;;
73938;SDS011;62291;47.554;8.504;2022-10-24T12:19:33;3.08;;;0.80;;
73938;SDS011;62291;47.554;8.504;2022-10-24T12:22:03;6.85;;;1.00;;
73938;SDS011;62291;47.554;8.504;2022-10-24T12:24:30;2.45;;;0.80;;
73938;SDS011;62291;47.554;8.504;2022-10-24T12:27:50;7.30;;;0.90;;
73938;SDS011;62291;47.554;8.504;2022-10-24T12:29:45;2.78;;;0.70;;
73938;SDS011;62291;47.554;8.504;2022-10-24T12:32:32;5.75;;;0.85;;
73938;SDS011;62291;47.554;8.504;2022-10-24T12:40:58;4.65;;;0.90;;
73938;SDS011;62291;47.554;8.504;2022-10-24T12:48:42;8.98;;;1.00;;
73938;SDS011;62291;47.554;8.504;2022-10-24T12:56:26;2.53;;;0.97;;
73938;SDS011;62291;47.554;8.504;2022-10-24T12:59:43;2.92;;;0.95;;
73938;SDS011;62291;47.554;8.504;2022-10-24T13:01:46;4.82;;;0.88;;
73938;SDS011;62291;47.554;8.504;2022-10-24T13:04:27;3.80;;;0.82;;
73938;SDS011;62291;47.554;8.504;2022-10-24T13:13:06;2.42;;;0.80;;
73938;SDS011;62291;47.554;8.504;2022-10-24T13:23:41;5.30;;;0.98;;
73938;SDS011;62291;47.554;8.504;2022-10-24T13:26:08;5.28;;;1.15;;
73938;SDS011;62291;47.554;8.504;2022-10-24T13:28:55;4.75;;;1.20;;
73938;SDS011;62291;47.554;8.504;2022-10-24T13:33:47;2.75;;;0.75;;
73938;SDS011;62291;47.554;8.504;2022-10-24T13:36:14;3.42;;;0.70;;
73938;SDS011;62291;47.554;8.504;2022-10-24T13:38:50;4.00;;;0.70;;
73938;SDS011;62291;47.554;8.504;2022-10-24T13:41:31;3.65;;;0.70;;
73938;SDS011;62291;47.554;8.504;2022-10-24T13:44:06;3.70;;;0.68;;
73938;SDS011;62291;47.554;8.504;2022-10-24T13:46:53;3.03;;;1.13;;
73938;SDS011;62291;47.554;8.504;2022-10-24T13:55:03;4.22;;;0.90;;
73938;SDS011;62291;47.554;8.504;2022-10-24T13:57:45;3.05;;;0.85;;
73938;SDS011;62291;47.554;8.504;2022-10-24T14:00:34;3.80;;;0.90;;
73938;SDS011;62291;47.554;8.504;2022-10-24T14:03:03;6.25;;;0.80;;
73938;SDS011;62291;47.554;8.504;2022-10-24T14:05:40;3.83;;;0.93;;
73938;SDS011;62291;47.554;8.504;2022-10-24T14:08:27;4.45;;;0.95;;
73938;SDS011;62291;47.554;8.504;2022-10-24T14:10:56;4.38;;;1.27;;
73938;SDS011;62291;47.554;8.504;2022-10-24T14:13:26;4.00;;;0.95;;
73938;SDS011;62291;47.554;8.504;2022-10-24T14:15:55;6.18;;;1.05;;
73938;SDS011;62291;47.554;8.504;2022-10-24T14:18:23;1.90;;;0.80;;
73938;SDS011;62291;47.554;8.504;2022-10-24T14:21:00;2.42;;;0.80;;
73938;SDS011;62291;47.554;8.504;2022-10-24T14:23:29;3.38;;;0.80;;
73938;SDS011;62291;47.554;8.504;2022-10-24T14:28:32;3.50;;;0.60;;
73938;SDS011;62291;47.554;8.504;2022-10-24T14:33:30;4.10;;;0.60;;
73938;SDS011;62291;47.554;8.504;2022-10-24T14:35:58;2.83;;;0.70;;
73938;SDS011;62291;47.554;8.504;2022-10-24T14:38:26;1.40;;;0.52;;
73938;SDS011;62291;47.554;8.504;2022-10-24T14:40:53;1.17;;;0.40;;
73938;SDS011;62291;47.554;8.504;2022-10-24T14:43:26;3.13;;;0.73;;
73938;SDS011;62291;47.554;8.504;2022-10-24T14:48:38;2.08;;;0.60;;
73938;SDS011;62291;47.554;8.504;2022-10-24T14:51:10;3.28;;;0.50;;
73938;SDS011;62291;47.554;8.504;2022-10-24T14:53:45;3.03;;;0.60;;
73938;SDS011;62291;47.554;8.504;2022-10-24T14:56:28;2.85;;;0.80;;
73938;SDS011;62291;47.554;8.504;2022-10-24T14:58:57;1.60;;;0.60;;
73938;SDS011;62291;47.554;8.504;2022-10-24T15:01:25;3.03;;;0.60;;
73938;SDS011;62291;47.554;8.504;2022-10-24T15:03:53;3.03;;;0.70;;
73938;SDS011;62291;47.554;8.504;2022-10-24T15:06:27;2.83;;;0.77;;
73938;SDS011;62291;47.554;8.504;2022-10-24T15:09:24;1.05;;;0.60;;
73938;SDS011;62291;47.554;8.504;2022-10-24T15:11:59;2.25;;;0.73;;
73938;SDS011;62291;47.554;8.504;2022-10-24T15:14:36;4.25;;;0.70;;
73938;SDS011;62291;47.554;8.504;2022-10-24T15:17:24;1.80;;;0.80;;
73938;SDS011;62291;47.554;8.504;2022-10-24T15:19:57;1.75;;;0.77;;
73938;SDS011;62291;47.554;8.504;2022-10-24T15:25:06;3.22;;;0.73;;
73938;SDS011;62291;47.554;8.504;2022-10-24T15:27:53;3.33;;;0.75;;
73938;SDS011;62291;47.554;8.504;2022-10-24T15:30:23;3.05;;;0.80;;
73938;SDS011;62291;47.554;8.504;2022-10-24T15:32:55;4.43;;;1.13;;
73938;SDS011;62291;47.554;8.504;2022-10-24T15:35:23;2.42;;;0.70;;
73938;SDS011;62291;47.554;8.504;2022-10-24T15:37:56;2.30;;;0.60;;
73938;SDS011;62291;47.554;8.504;2022-10-24T15:40:44;5.28;;;0.80;;
73938;SDS011;62291;47.554;8.504;2022-10-24T15:43:12;4.43;;;1.00;;
73938;SDS011;62291;47.554;8.504;2022-10-24T15:45:40;4.28;;;0.70;;
73938;SDS011;62291;47.554;8.504;2022-10-24T15:48:06;4.18;;;0.60;;
73938;SDS011;62291;47.554;8.504;2022-10-24T15:50:31;2.72;;;0.60;;
73938;SDS011;62291;47.554;8.504;2022-10-24T15:52:59;7.43;;;1.05;;
73938;SDS011;62291;47.554;8.504;2022-10-24T15:55:28;4.78;;;0.70;;
73938;SDS011;62291;47.554;8.504;2022-10-24T15:57:54;1.67;;;0.60;;
73938;SDS011;62291;47.554;8.504;2022-10-24T16:00:22;2.95;;;0.73;;
73938;SDS011;62291;47.554;8.504;2022-10-24T16:02:49;2.65;;;0.68;;
73938;SDS011;62291;47.554;8.504;2022-10-24T16:05:19;5.03;;;2.40;;
73938;SDS011;62291;47.554;8.504;2022-10-24T16:07:47;2.03;;;0.70;;
73938;SDS011;62291;47.554;8.504;2022-10-24T16:10:16;3.22;;;0.90;;
73938;SDS011;62291;47.554;8.504;2022-10-24T16:12:43;2.97;;;0.80;;
73938;SDS011;62291;47.554;8.504;2022-10-24T16:15:20;4.70;;;0.82;;
73938;SDS011;62291;47.554;8.504;2022-10-24T16:17:50;2.43;;;0.80;;
73938;SDS011;62291;47.554;8.504;2022-10-24T16:20:16;3.15;;;0.98;;
73938;SDS011;62291;47.554;8.504;2022-10-24T16:22:42;3.28;;;0.77;;
73938;SDS011;62291;47.554;8.504;2022-10-24T16:25:19;1.50;;;0.73;;
73938;SDS011;62291;47.554;8.504;2022-10-24T16:27:49;5.72;;;0.73;;
73938;SDS011;62291;47.554;8.504;2022-10-24T16:30:17;1.95;;;0.70;;
73938;SDS011;62291;47.554;8.504;2022-10-24T16:32:44;4.65;;;0.77;;
73938;SDS011;62291;47.554;8.504;2022-10-24T16:35:19;3.28;;;0.70;;
73938;SDS011;62291;47.554;8.504;2022-10-24T16:37:50;2.03;;;0.90;;
73938;SDS011;62291;47.554;8.504;2022-10-24T16:40:16;3.25;;;1.10;;
73938;SDS011;62291;47.554;8.504;2022-10-24T16:42:42;2.03;;;0.80;;
73938;SDS011;62291;47.554;8.504;2022-10-24T16:45:09;4.38;;;1.00;;
73938;SDS011;62291;47.554;8.504;2022-10-24T16:47:35;1.80;;;0.85;;
73938;SDS011;62291;47.554;8.504;2022-10-24T16:50:01;4.85;;;1.15;;
73938;SDS011;62291;47.554;8.504;2022-10-24T16:52:28;3.05;;;1.13;;
73938;SDS011;62291;47.554;8.504;2022-10-24T16:54:53;4.18;;;1.05;;
73938;SDS011;62291;47.554;8.504;2022-10-24T16:57:20;3.95;;;1.20;;
73938;SDS011;62291;47.554;8.504;2022-10-24T16:59:47;4.55;;;1.13;;
73938;SDS011;62291;47.554;8.504;2022-10-24T17:02:13;4.88;;;1.50;;
73938;SDS011;62291;47.554;8.504;2022-10-24T17:04:40;4.15;;;1.00;;
73938;SDS011;62291;47.554;8.504;2022-10-24T17:07:09;5.85;;;1.48;;
73938;SDS011;62291;47.554;8.504;2022-10-24T17:09:37;4.28;;;1.33;;
73938;SDS011;62291;47.554;8.504;2022-10-24T17:12:03;4.07;;;1.40;;
73938;SDS011;62291;47.554;8.504;2022-10-24T17:14:31;3.95;;;1.15;;
73938;SDS011;62291;47.554;8.504;2022-10-24T17:16:58;2.55;;;1.27;;
73938;SDS011;62291;47.554;8.504;2022-10-24T17:19:23;3.50;;;1.58;;
73938;SDS011;62291;47.554;8.504;2022-10-24T17:21:49;4.60;;;1.40;;
73938;SDS011;62291;47.554;8.504;2022-10-24T17:24:17;4.32;;;1.30;;
73938;SDS011;62291;47.554;8.504;2022-10-24T17:26:45;2.35;;;1.48;;
73938;SDS011;62291;47.554;8.504;2022-10-24T17:29:12;3.00;;;1.67;;
73938;SDS011;62291;47.554;8.504;2022-10-24T17:31:47;5.28;;;1.50;;
73938;SDS011;62291;47.554;8.504;2022-10-24T17:34:13;3.43;;;1.60;;